Time;durP1;ratioP1;P1;durP2;ratioP2;P2;SDS_P1;SDS_P2;PMS_P1;PMS_P2;Temp;Humidity;BMP_temperature;BMP_pressure;BME280_temperature;BME280_humidity;BME280_pressure;Samples;Min_cycle;Max_cycle;Signal;HPM_P1;HPM_P2
2021/06/29 00:00:28;;;;;;;7.30;5.63;;;;;;;;;;4997286;28;20401;-86
2021/06/29 00:03:01;;;;;;;8.73;5.13;;;;;;;;;;4998006;28;20404;-87
2021/06/29 00:05:29;;;;;;;8.80;5.87;;;;;;;;;;4998392;28;20411;-86
2021/06/29 00:07:55;;;;;;;6.13;5.47;;;;;;;;;;4994969;28;20469;-87
2021/06/29 00:10:24;;;;;;;7.25;6.13;;;;;;;;;;4996671;28;20793;-86
2021/06/29 00:12:52;;;;;;;8.65;5.90;;;;;;;;;;4995848;28;20422;-86
2021/06/29 00:15:19;;;;;;;8.82;6.43;;;;;;;;;;4994164;28;20910;-86
2021/06/29 00:17:47;;;;;;;7.85;6.15;;;;;;;;;;4995732;28;20466;-86
2021/06/29 00:20:14;;;;;;;10.07;6.97;;;;;;;;;;4993613;28;21325;-86
2021/06/29 00:22:41;;;;;;;9.30;6.57;;;;;;;;;;4993893;28;20405;-86
2021/06/29 00:25:10;;;;;;;9.48;6.50;;;;;;;;;;4992876;28;21275;-86
2021/06/29 00:27:39;;;;;;;7.57;5.97;;;;;;;;;;4996682;28;20530;-85
2021/06/29 00:30:08;;;;;;;7.55;6.55;;;;;;;;;;4992712;28;20431;-84
2021/06/29 00:32:35;;;;;;;9.57;6.85;;;;;;;;;;4992802;28;20413;-86
2021/06/29 00:35:02;;;;;;;8.25;6.10;;;;;;;;;;4992133;28;20463;-86
2021/06/29 00:37:29;;;;;;;7.28;6.50;;;;;;;;;;4992770;28;20415;-86
2021/06/29 00:39:56;;;;;;;8.60;6.47;;;;;;;;;;4992676;28;20914;-86
2021/06/29 00:42:23;;;;;;;7.25;6.50;;;;;;;;;;4993174;28;20794;-86
2021/06/29 00:44:51;;;;;;;8.38;6.25;;;;;;;;;;4993027;28;20683;-85
2021/06/29 00:47:18;;;;;;;8.50;6.55;;;;;;;;;;4992678;28;20882;-86
2021/06/29 00:49:44;;;;;;;7.75;6.40;;;;;;;;;;4992758;28;20413;-86
2021/06/29 00:52:12;;;;;;;7.75;6.97;;;;;;;;;;4994693;28;20435;-86
2021/06/29 00:54:39;;;;;;;7.88;6.82;;;;;;;;;;4996514;28;20426;-86
2021/06/29 00:57:09;;;;;;;6.80;6.20;;;;;;;;;;4991745;28;20808;-86
2021/06/29 00:59:37;;;;;;;9.53;7.00;;;;;;;;;;4996800;28;20427;-85
2021/06/29 01:02:06;;;;;;;6.72;6.13;;;;;;;;;;4996450;28;20411;-85
2021/06/29 01:04:33;;;;;;;8.07;6.55;;;;;;;;;;4996534;28;20406;-86
2021/06/29 01:07:00;;;;;;;8.15;5.97;;;;;;;;;;4995817;28;20892;-86
2021/06/29 01:09:27;;;;;;;7.43;6.45;;;;;;;;;;4996354;28;20408;-86
2021/06/29 01:11:54;;;;;;;7.38;6.10;;;;;;;;;;4996356;28;20421;-86
2021/06/29 01:14:21;;;;;;;7.63;6.90;;;;;;;;;;4996292;28;20984;-86
2021/06/29 01:16:48;;;;;;;8.65;6.93;;;;;;;;;;4995892;28;20415;-86
2021/06/29 01:19:19;;;;;;;8.18;6.80;;;;;;;;;;4995331;28;20411;-86
2021/06/29 01:21:50;;;;;;;8.07;7.28;;;;;;;;;;4994768;28;20415;-86
2021/06/29 01:24:23;;;;;;;9.20;7.03;;;;;;;;;;4994697;28;20411;-86
2021/06/29 01:26:57;;;;;;;7.60;6.90;;;;;;;;;;4995118;28;20459;-85
2021/06/29 01:29:36;;;;;;;8.07;7.18;;;;;;;;;;4994395;28;20788;-85
2021/06/29 01:32:02;;;;;;;7.57;6.80;;;;;;;;;;4992931;28;20451;-86
2021/06/29 01:34:29;;;;;;;7.88;6.50;;;;;;;;;;4993060;28;20431;-85
2021/06/29 01:36:57;;;;;;;9.13;6.90;;;;;;;;;;4994086;28;20407;-86
2021/06/29 01:39:24;;;;;;;9.77;7.47;;;;;;;;;;4992997;28;20465;-86
2021/06/29 01:41:51;;;;;;;9.00;7.22;;;;;;;;;;4991907;28;20497;-85
2021/06/29 01:44:22;;;;;;;10.05;7.00;;;;;;;;;;4991620;28;20419;-86
2021/06/29 01:46:52;;;;;;;7.60;6.88;;;;;;;;;;4993639;28;20413;-86
2021/06/29 01:49:24;;;;;;;7.90;7.18;;;;;;;;;;4991201;28;20417;-85
2021/06/29 01:51:51;;;;;;;7.47;6.78;;;;;;;;;;4991318;28;20511;-86
2021/06/29 01:54:19;;;;;;;7.45;6.72;;;;;;;;;;4990968;28;20419;-86
2021/06/29 01:56:47;;;;;;;7.35;6.28;;;;;;;;;;4991030;28;20412;-86
2021/06/29 01:59:18;;;;;;;7.53;5.90;;;;;;;;;;4994453;28;20777;-86
2021/06/29 02:01:45;;;;;;;6.10;5.60;;;;;;;;;;4995369;28;20879;-85
2021/06/29 02:04:12;;;;;;;6.43;5.80;;;;;;;;;;5000144;28;20568;-85
2021/06/29 02:06:40;;;;;;;9.67;6.27;;;;;;;;;;4999606;28;20459;-86
2021/06/29 02:09:08;;;;;;;7.18;6.55;;;;;;;;;;5003249;28;20410;-85
2021/06/29 02:11:37;;;;;;;7.63;6.80;;;;;;;;;;5001888;28;20517;-86
2021/06/29 02:14:05;;;;;;;7.65;6.88;;;;;;;;;;4993816;28;20427;-85
2021/06/29 02:16:32;;;;;;;10.70;6.70;;;;;;;;;;4999413;28;20509;-86
2021/06/29 02:18:59;;;;;;;6.97;5.93;;;;;;;;;;4999266;28;20417;-85
2021/06/29 02:21:26;;;;;;;7.63;6.07;;;;;;;;;;4999464;28;20499;-85
2021/06/29 02:23:53;;;;;;;6.35;5.72;;;;;;;;;;5003446;28;20471;-85
2021/06/29 02:26:20;;;;;;;6.10;5.38;;;;;;;;;;5003465;28;20411;-85
2021/06/29 02:28:48;;;;;;;6.50;5.90;;;;;;;;;;5003113;28;20484;-85
2021/06/29 02:31:15;;;;;;;6.22;5.63;;;;;;;;;;4998814;28;20415;-85
2021/06/29 02:33:42;;;;;;;6.95;6.32;;;;;;;;;;5003691;28;20499;-85
2021/06/29 02:36:09;;;;;;;7.03;6.20;;;;;;;;;;4999346;28;20423;-86
2021/06/29 02:38:36;;;;;;;7.33;6.10;;;;;;;;;;5003258;28;20411;-86
2021/06/29 02:41:04;;;;;;;7.03;6.15;;;;;;;;;;5002694;28;20406;-85
2021/06/29 02:43:31;;;;;;;6.93;6.20;;;;;;;;;;5002240;28;20406;-85
2021/06/29 02:45:59;;;;;;;8.00;6.20;;;;;;;;;;5003050;28;20411;-85
2021/06/29 02:48:26;;;;;;;7.27;5.90;;;;;;;;;;4999003;28;20426;-86
2021/06/29 02:50:53;;;;;;;7.03;6.33;;;;;;;;;;5003003;28;20487;-85
2021/06/29 02:53:20;;;;;;;8.40;6.22;;;;;;;;;;5003209;28;20464;-86
2021/06/29 02:55:47;;;;;;;8.73;6.25;;;;;;;;;;4999636;28;20899;-86
2021/06/29 02:58:14;;;;;;;7.17;6.47;;;;;;;;;;5002529;28;20473;-86
2021/06/29 03:00:41;;;;;;;7.87;6.57;;;;;;;;;;5002646;28;20410;-86
2021/06/29 03:03:09;;;;;;;8.25;7.10;;;;;;;;;;5002570;28;20415;-85
2021/06/29 03:05:36;;;;;;;8.98;7.47;;;;;;;;;;5002594;28;20411;-85
2021/06/29 03:08:03;;;;;;;8.43;7.63;;;;;;;;;;5002760;28;20411;-86
2021/06/29 03:10:30;;;;;;;9.60;7.78;;;;;;;;;;5002868;28;20446;-85
2021/06/29 03:12:57;;;;;;;8.75;7.90;;;;;;;;;;5002763;28;20916;-86
2021/06/29 03:15:23;;;;;;;9.75;8.25;;;;;;;;;;5002399;28;20410;-85
2021/06/29 03:17:51;;;;;;;8.27;7.57;;;;;;;;;;5003246;28;20414;-85
2021/06/29 03:20:19;;;;;;;10.60;8.27;;;;;;;;;;5002541;28;20897;-86
2021/06/29 03:22:46;;;;;;;9.65;7.68;;;;;;;;;;4998483;28;20718;-85
2021/06/29 03:25:13;;;;;;;8.70;7.80;;;;;;;;;;5002920;28;20407;-86
2021/06/29 03:27:40;;;;;;;7.80;7.00;;;;;;;;;;5002671;28;20546;-86
2021/06/29 03:30:09;;;;;;;8.25;7.35;;;;;;;;;;5002541;28;20418;-85
2021/06/29 03:32:36;;;;;;;9.38;6.57;;;;;;;;;;5002530;28;20422;-86
2021/06/29 03:35:07;;;;;;;7.93;7.00;;;;;;;;;;5002447;28;20525;-85
2021/06/29 03:37:37;;;;;;;7.28;6.43;;;;;;;;;;5002519;28;20407;-85
2021/06/29 03:40:05;;;;;;;7.78;6.35;;;;;;;;;;5002483;28;20492;-86
2021/06/29 03:42:31;;;;;;;7.80;5.82;;;;;;;;;;5002148;28;20465;-85
2021/06/29 03:44:58;;;;;;;6.35;5.75;;;;;;;;;;5002482;28;20899;-84
2021/06/29 03:47:25;;;;;;;10.35;6.30;;;;;;;;;;5002617;28;20469;-85
2021/06/29 03:49:52;;;;;;;7.60;5.55;;;;;;;;;;5003051;28;20715;-85
2021/06/29 03:52:19;;;;;;;7.65;5.35;;;;;;;;;;5002855;28;20414;-85
2021/06/29 03:54:47;;;;;;;7.33;5.13;;;;;;;;;;5004661;28;20406;-86
2021/06/29 03:57:14;;;;;;;5.85;4.65;;;;;;;;;;5006316;28;20410;-85
2021/06/29 03:59:40;;;;;;;7.78;4.57;;;;;;;;;;5006412;28;20399;-86
2021/06/29 04:02:07;;;;;;;7.85;4.32;;;;;;;;;;5005792;28;20453;-86
2021/06/29 04:04:34;;;;;;;6.68;4.45;;;;;;;;;;5002608;28;20887;-86
2021/06/29 04:07:03;;;;;;;5.37;4.00;;;;;;;;;;5003534;28;20584;-85
2021/06/29 04:09:30;;;;;;;8.00;4.03;;;;;;;;;;5004100;28;20490;-86
2021/06/29 04:11:58;;;;;;;6.40;3.90;;;;;;;;;;5003639;28;20419;-86
2021/06/29 04:14:25;;;;;;;5.90;3.85;;;;;;;;;;5000347;28;20885;-85
2021/06/29 04:16:52;;;;;;;6.72;3.97;;;;;;;;;;5004630;28;20937;-86
2021/06/29 04:19:19;;;;;;;8.80;4.30;;;;;;;;;;4996810;28;20415;-86
2021/06/29 04:21:46;;;;;;;6.73;3.97;;;;;;;;;;4993569;28;20462;-86
2021/06/29 04:24:13;;;;;;;4.40;4.00;;;;;;;;;;4987506;28;20405;-85
2021/06/29 04:26:40;;;;;;;8.82;4.40;;;;;;;;;;4990295;28;20777;-86
2021/06/29 04:29:08;;;;;;;6.55;3.85;;;;;;;;;;4994284;28;20413;-86
2021/06/29 04:31:35;;;;;;;5.18;3.90;;;;;;;;;;4986935;28;20532;-86
2021/06/29 04:34:02;;;;;;;6.05;3.60;;;;;;;;;;4986675;28;20411;-86
2021/06/29 04:36:28;;;;;;;9.30;4.13;;;;;;;;;;4987100;28;20432;-86
2021/06/29 04:38:55;;;;;;;6.47;3.80;;;;;;;;;;4990041;28;20464;-85
2021/06/29 04:41:22;;;;;;;7.53;3.75;;;;;;;;;;4986701;28;20420;-85
2021/06/29 04:43:49;;;;;;;5.10;3.40;;;;;;;;;;4986346;28;20417;-86
2021/06/29 04:46:17;;;;;;;5.70;3.47;;;;;;;;;;4986533;28;20409;-85
2021/06/29 04:48:45;;;;;;;6.68;3.67;;;;;;;;;;4986231;28;20408;-86
2021/06/29 04:51:12;;;;;;;4.55;3.47;;;;;;;;;;4986355;28;20496;-85
2021/06/29 04:53:39;;;;;;;8.15;4.53;;;;;;;;;;4999682;28;20883;-86
2021/06/29 04:56:16;;;;;;;6.63;4.78;;;;;;;;;;5002929;28;20426;-86
2021/06/29 04:58:44;;;;;;;7.13;4.70;;;;;;;;;;5002821;28;20832;-86
2021/06/29 05:01:11;;;;;;;8.88;4.78;;;;;;;;;;5002155;28;20409;-85
2021/06/29 05:03:39;;;;;;;6.32;4.40;;;;;;;;;;4996784;28;20767;-86
2021/06/29 05:06:06;;;;;;;8.63;4.77;;;;;;;;;;4985200;28;20857;-86
2021/06/29 05:08:33;;;;;;;7.13;4.90;;;;;;;;;;5002554;28;20438;-86
2021/06/29 05:11:00;;;;;;;6.20;5.20;;;;;;;;;;4999446;28;20447;-85
2021/06/29 05:13:26;;;;;;;6.15;4.63;;;;;;;;;;5003059;28;20641;-85
2021/06/29 05:15:56;;;;;;;5.82;4.70;;;;;;;;;;4996354;28;20434;-86
2021/06/29 05:18:26;;;;;;;7.18;4.60;;;;;;;;;;5001639;28;20410;-87
2021/06/29 05:20:57;;;;;;;5.22;4.18;;;;;;;;;;4997747;28;20763;-86
2021/06/29 05:23:26;;;;;;;5.90;4.05;;;;;;;;;;4990934;28;20869;-86
2021/06/29 05:25:56;;;;;;;6.10;4.30;;;;;;;;;;4989052;28;20433;-85
2021/06/29 05:28:28;;;;;;;7.72;3.70;;;;;;;;;;4995495;28;20651;-86
2021/06/29 05:30:58;;;;;;;8.50;4.20;;;;;;;;;;4996286;28;20397;-85
2021/06/29 05:33:27;;;;;;;6.63;4.33;;;;;;;;;;4990899;28;20415;-85
2021/06/29 05:35:59;;;;;;;6.27;4.07;;;;;;;;;;4988965;28;20986;-85
2021/06/29 05:38:29;;;;;;;6.75;4.13;;;;;;;;;;4988927;28;20417;-85
2021/06/29 05:40:58;;;;;;;9.32;4.18;;;;;;;;;;4997576;28;20408;-85
2021/06/29 05:43:28;;;;;;;7.22;4.10;;;;;;;;;;4999009;28;20891;-86
2021/06/29 05:45:57;;;;;;;4.80;4.10;;;;;;;;;;4991172;28;20433;-86
2021/06/29 05:48:31;;;;;;;4.80;4.15;;;;;;;;;;4988293;28;20400;-86
2021/06/29 05:51:03;;;;;;;5.13;4.03;;;;;;;;;;5000318;28;20496;-86
2021/06/29 05:53:32;;;;;;;6.00;4.03;;;;;;;;;;4985303;28;20448;-86
2021/06/29 05:56:02;;;;;;;6.28;3.80;;;;;;;;;;4991877;28;20496;-86
2021/06/29 05:58:32;;;;;;;5.93;4.10;;;;;;;;;;4988827;28;20408;-86
2021/06/29 06:01:01;;;;;;;4.93;3.53;;;;;;;;;;4983898;28;20459;-86
2021/06/29 06:03:30;;;;;;;6.30;3.70;;;;;;;;;;4983530;28;20769;-86
2021/06/29 06:06:01;;;;;;;11.93;4.30;;;;;;;;;;4991017;28;20396;-86
2021/06/29 06:08:31;;;;;;;5.93;3.75;;;;;;;;;;4992530;28;20402;-86
2021/06/29 06:11:01;;;;;;;6.45;3.50;;;;;;;;;;4987037;28;20406;-85
2021/06/29 06:13:30;;;;;;;4.78;3.42;;;;;;;;;;4991889;28;20420;-85
2021/06/29 06:16:02;;;;;;;6.50;3.27;;;;;;;;;;4997912;28;20418;-85
2021/06/29 06:18:31;;;;;;;7.40;3.20;;;;;;;;;;4992194;28;20411;-86
2021/06/29 06:21:02;;;;;;;8.40;3.22;;;;;;;;;;4985331;28;20393;-86
2021/06/29 06:23:32;;;;;;;5.55;2.97;;;;;;;;;;4991394;28;20572;-86
2021/06/29 06:26:02;;;;;;;5.07;2.57;;;;;;;;;;4983788;28;20795;-86
2021/06/29 06:28:32;;;;;;;5.77;2.67;;;;;;;;;;4983073;28;20445;-86
2021/06/29 06:31:02;;;;;;;5.57;2.70;;;;;;;;;;4984973;28;20466;-86
2021/06/29 06:33:31;;;;;;;6.00;2.80;;;;;;;;;;4987080;28;20408;-86
2021/06/29 06:36:02;;;;;;;4.00;2.40;;;;;;;;;;4999879;23;20447;-85
2021/06/29 06:38:32;;;;;;;3.75;2.53;;;;;;;;;;4982560;28;20779;-85
2021/06/29 06:41:01;;;;;;;3.38;2.30;;;;;;;;;;4982689;28;20678;-85
2021/06/29 06:43:31;;;;;;;2.90;2.33;;;;;;;;;;4983178;28;20443;-85
2021/06/29 06:46:01;;;;;;;3.70;2.25;;;;;;;;;;4983834;28;20900;-85
2021/06/29 06:48:30;;;;;;;6.07;2.28;;;;;;;;;;4982533;28;20413;-85
2021/06/29 06:51:02;;;;;;;4.45;2.03;;;;;;;;;;4983435;28;20677;-85
2021/06/29 06:53:32;;;;;;;6.50;2.38;;;;;;;;;;4982924;28;20494;-85
2021/06/29 06:56:01;;;;;;;3.00;2.40;;;;;;;;;;4983379;28;20610;-85
2021/06/29 06:58:31;;;;;;;5.22;2.38;;;;;;;;;;4982919;28;20424;-85
2021/06/29 07:01:01;;;;;;;3.75;2.50;;;;;;;;;;4983858;28;20699;-86
2021/06/29 07:03:30;;;;;;;3.63;2.10;;;;;;;;;;4997393;28;20488;-85
2021/06/29 07:06:02;;;;;;;3.83;2.20;;;;;;;;;;4996437;28;20403;-85
2021/06/29 07:08:31;;;;;;;4.05;1.95;;;;;;;;;;4991658;28;20412;-85
2021/06/29 07:11:01;;;;;;;4.15;1.80;;;;;;;;;;4994326;28;20411;-85
2021/06/29 07:13:31;;;;;;;5.35;1.80;;;;;;;;;;4984701;28;20413;-85
2021/06/29 07:16:01;;;;;;;2.17;1.60;;;;;;;;;;4983689;28;20777;-85
2021/06/29 07:18:30;;;;;;;4.07;1.65;;;;;;;;;;4988798;28;20399;-85
2021/06/29 07:21:01;;;;;;;2.08;1.73;;;;;;;;;;4982898;28;20436;-85
2021/06/29 07:23:31;;;;;;;1.85;1.67;;;;;;;;;;5000438;28;20464;-86
2021/06/29 07:26:01;;;;;;;3.85;1.80;;;;;;;;;;5001904;28;20421;-85
2021/06/29 07:28:31;;;;;;;5.00;1.83;;;;;;;;;;5002072;28;20481;-85
2021/06/29 07:31:00;;;;;;;3.03;1.88;;;;;;;;;;5006149;28;20715;-85
2021/06/29 07:33:30;;;;;;;2.92;1.88;;;;;;;;;;5005651;28;20788;-85
2021/06/29 07:36:02;;;;;;;4.43;2.00;;;;;;;;;;5004380;28;20406;-85
2021/06/29 07:38:31;;;;;;;3.42;2.05;;;;;;;;;;5005695;28;20898;-85
2021/06/29 07:41:01;;;;;;;2.92;2.00;;;;;;;;;;5005883;28;20411;-85
2021/06/29 07:43:30;;;;;;;3.58;2.03;;;;;;;;;;5005701;28;20457;-86
2021/06/29 07:46:00;;;;;;;2.30;1.90;;;;;;;;;;5005135;28;20403;-86
2021/06/29 07:48:30;;;;;;;4.40;2.03;;;;;;;;;;5005363;28;20399;-85
2021/06/29 07:50:59;;;;;;;2.58;2.10;;;;;;;;;;5003192;28;20975;-86
2021/06/29 07:53:31;;;;;;;4.30;2.30;;;;;;;;;;4985968;28;20808;-86
2021/06/29 07:56:01;;;;;;;2.85;2.58;;;;;;;;;;5000295;28;20415;-86
2021/06/29 07:58:30;;;;;;;3.07;2.33;;;;;;;;;;4985826;28;20500;-86
2021/06/29 08:01:00;;;;;;;2.85;2.42;;;;;;;;;;4985558;28;20404;-85
2021/06/29 08:03:29;;;;;;;3.30;2.43;;;;;;;;;;4986310;28;20504;-86
2021/06/29 08:05:59;;;;;;;3.78;2.28;;;;;;;;;;4987042;28;20413;-85
2021/06/29 08:08:29;;;;;;;3.28;2.42;;;;;;;;;;4985922;28;20832;-85
2021/06/29 08:10:58;;;;;;;3.55;2.28;;;;;;;;;;4993597;28;20398;-85
2021/06/29 08:13:25;;;;;;;3.23;2.27;;;;;;;;;;4986896;28;20451;-86
2021/06/29 08:15:51;;;;;;;4.30;2.60;;;;;;;;;;4984629;28;20455;-85
2021/06/29 08:18:18;;;;;;;6.25;2.35;;;;;;;;;;4985308;28;20428;-86
2021/06/29 08:20:46;;;;;;;6.30;2.30;;;;;;;;;;4985456;28;20467;-86
2021/06/29 08:23:13;;;;;;;5.50;2.30;;;;;;;;;;4999562;28;20495;-85
2021/06/29 08:25:43;;;;;;;3.83;2.33;;;;;;;;;;5004567;28;20403;-86
2021/06/29 08:28:12;;;;;;;3.85;2.22;;;;;;;;;;5004715;28;20425;-85
2021/06/29 08:30:39;;;;;;;5.68;2.33;;;;;;;;;;5004293;28;20402;-86
2021/06/29 08:33:10;;;;;;;4.72;2.58;;;;;;;;;;5003946;28;20407;-86
2021/06/29 08:35:38;;;;;;;5.38;2.35;;;;;;;;;;5004049;28;20411;-85
2021/06/29 08:38:05;;;;;;;2.88;1.85;;;;;;;;;;5003876;28;20794;-86
2021/06/29 08:40:32;;;;;;;5.15;2.22;;;;;;;;;;5002152;28;20403;-86
2021/06/29 08:43:00;;;;;;;6.05;2.13;;;;;;;;;;5004384;28;20825;-85
2021/06/29 08:45:27;;;;;;;5.82;2.30;;;;;;;;;;5003686;28;20403;-86
2021/06/29 08:47:54;;;;;;;3.20;2.20;;;;;;;;;;5004488;28;20403;-86
2021/06/29 08:50:20;;;;;;;4.15;2.50;;;;;;;;;;5003159;28;20806;-85
2021/06/29 08:52:47;;;;;;;4.87;2.20;;;;;;;;;;5003741;28;20403;-86
2021/06/29 08:55:14;;;;;;;3.13;1.75;;;;;;;;;;5003903;28;20925;-86
2021/06/29 08:57:41;;;;;;;3.70;1.85;;;;;;;;;;5003686;28;20423;-86
2021/06/29 09:00:12;;;;;;;3.15;1.60;;;;;;;;;;5003459;28;20626;-86
2021/06/29 09:02:41;;;;;;;4.10;1.77;;;;;;;;;;5003218;28;20431;-86
2021/06/29 09:05:19;;;;;;;5.60;1.87;;;;;;;;;;5003332;28;20419;-86
2021/06/29 09:07:48;;;;;;;3.60;2.00;;;;;;;;;;4998532;28;20718;-85
2021/06/29 09:10:15;;;;;;;3.00;1.73;;;;;;;;;;4998477;28;20411;-86
2021/06/29 09:12:45;;;;;;;3.67;1.70;;;;;;;;;;4993937;28;20481;-86
2021/06/29 09:15:40;;;;;;;5.28;1.80;;;;;;;;;;4992079;28;20563;-86
2021/06/29 09:18:13;;;;;;;2.97;1.80;;;;;;;;;;4993022;28;20442;-86
2021/06/29 09:20:41;;;;;;;2.75;1.55;;;;;;;;;;4990383;28;20413;-86
2021/06/29 09:23:10;;;;;;;4.28;1.50;;;;;;;;;;4988374;28;20427;-86
2021/06/29 09:25:38;;;;;;;4.80;1.67;;;;;;;;;;4992789;28;20498;-86
2021/06/29 09:28:05;;;;;;;2.60;1.45;;;;;;;;;;4995545;28;20412;-86
2021/06/29 09:30:40;;;;;;;3.50;2.00;;;;;;;;;;4993109;28;20426;-86
2021/06/29 09:33:10;;;;;;;5.68;1.70;;;;;;;;;;4995125;28;20419;-85
2021/06/29 09:35:39;;;;;;;3.03;1.50;;;;;;;;;;4991462;28;20896;-86
2021/06/29 09:38:08;;;;;;;3.83;1.85;;;;;;;;;;4996232;28;20419;-86
2021/06/29 09:40:36;;;;;;;3.20;1.60;;;;;;;;;;4999451;28;20749;-86
2021/06/29 09:43:22;;;;;;;3.88;1.60;;;;;;;;;;4991034;28;20416;-86
2021/06/29 09:45:52;;;;;;;4.33;1.77;;;;;;;;;;4996392;28;20743;-86
2021/06/29 09:48:29;;;;;;;2.90;1.60;;;;;;;;;;4987579;28;20413;-86
2021/06/29 09:51:00;;;;;;;2.40;1.90;;;;;;;;;;4997838;28;20431;-86
2021/06/29 09:53:30;;;;;;;3.17;1.60;;;;;;;;;;4992025;28;20403;-86
2021/06/29 09:55:59;;;;;;;1.70;1.60;;;;;;;;;;4997627;28;20395;-86
2021/06/29 09:58:26;;;;;;;4.15;1.80;;;;;;;;;;5001082;28;20423;-86
2021/06/29 10:00:57;;;;;;;3.23;1.60;;;;;;;;;;4997878;28;20411;-86
2021/06/29 10:03:28;;;;;;;2.13;1.60;;;;;;;;;;4996854;28;20978;-85
2021/06/29 10:05:56;;;;;;;4.43;1.70;;;;;;;;;;4997903;28;20418;-85
2021/06/29 10:08:34;;;;;;;6.55;1.92;;;;;;;;;;4992568;28;20773;-86
2021/06/29 10:11:06;;;;;;;2.72;1.80;;;;;;;;;;4988538;28;20939;-85
2021/06/29 10:13:36;;;;;;;4.18;1.73;;;;;;;;;;4990594;28;20915;-87
2021/06/29 10:16:06;;;;;;;2.50;1.60;;;;;;;;;;4988445;28;20948;-85
2021/06/29 10:18:36;;;;;;;3.23;1.80;;;;;;;;;;4990412;28;20431;-86
2021/06/29 10:21:14;;;;;;;2.50;1.88;;;;;;;;;;4991226;28;20959;-86
2021/06/29 10:23:42;;;;;;;3.67;1.70;;;;;;;;;;4993175;28;20407;-86
2021/06/29 10:26:09;;;;;;;1.90;1.80;;;;;;;;;;4997444;28;20407;-86
2021/06/29 10:28:36;;;;;;;2.85;1.83;;;;;;;;;;4992705;28;20404;-86
2021/06/29 10:31:05;;;;;;;3.05;1.50;;;;;;;;;;4993678;28;20829;-86
2021/06/29 10:33:33;;;;;;;2.63;1.80;;;;;;;;;;4996600;28;20403;-86
2021/06/29 10:36:01;;;;;;;3.67;1.65;;;;;;;;;;4994961;28;20406;-86
2021/06/29 10:38:28;;;;;;;2.00;1.60;;;;;;;;;;5000817;28;20519;-86
2021/06/29 10:40:55;;;;;;;2.22;1.45;;;;;;;;;;4995041;28;20416;-86
2021/06/29 10:43:23;;;;;;;2.83;1.17;;;;;;;;;;4988648;28;20895;-86
2021/06/29 10:45:52;;;;;;;3.47;1.50;;;;;;;;;;4995823;28;20804;-86
2021/06/29 10:48:23;;;;;;;1.40;1.30;;;;;;;;;;4992166;28;20829;-86
2021/06/29 10:50:52;;;;;;;4.60;1.70;;;;;;;;;;4998626;28;20409;-86
2021/06/29 10:53:36;;;;;;;2.65;1.50;;;;;;;;;;4991195;28;20406;-86
2021/06/29 10:56:05;;;;;;;2.40;1.60;;;;;;;;;;4999466;28;20419;-86
2021/06/29 10:58:41;;;;;;;2.47;1.30;;;;;;;;;;4996911;28;20493;-86
2021/06/29 11:01:24;;;;;;;2.50;1.30;;;;;;;;;;4995258;28;21190;-86
2021/06/29 11:03:53;;;;;;;3.22;1.55;;;;;;;;;;4991874;28;20455;-86
2021/06/29 11:06:42;;;;;;;3.13;1.33;;;;;;;;;;4996269;28;20734;-86
2021/06/29 11:09:10;;;;;;;2.22;1.70;;;;;;;;;;4999039;28;20421;-86
2021/06/29 11:11:37;;;;;;;2.85;1.73;;;;;;;;;;4991644;28;20452;-86
2021/06/29 11:14:24;;;;;;;4.10;1.88;;;;;;;;;;4990947;28;20417;-86
2021/06/29 11:16:53;;;;;;;2.83;1.80;;;;;;;;;;4990483;28;20415;-86
2021/06/29 11:19:22;;;;;;;1.80;1.55;;;;;;;;;;4988807;28;20460;-86
2021/06/29 11:21:49;;;;;;;4.87;1.60;;;;;;;;;;4989840;28;20407;-86
2021/06/29 11:24:43;;;;;;;3.63;1.67;;;;;;;;;;4988188;28;20431;-86
2021/06/29 11:27:10;;;;;;;4.53;1.50;;;;;;;;;;4989009;28;20407;-86
2021/06/29 11:29:44;;;;;;;4.87;1.80;;;;;;;;;;4987546;28;20737;-86
2021/06/29 11:32:31;;;;;;;5.10;1.90;;;;;;;;;;4988183;28;20415;-86
2021/06/29 11:35:31;;;;;;;4.35;1.70;;;;;;;;;;4984985;28;21385;-86
2021/06/29 11:38:08;;;;;;;3.75;1.67;;;;;;;;;;4996431;28;20423;-85
2021/06/29 11:40:35;;;;;;;5.90;1.57;;;;;;;;;;4997143;28;20418;-86
2021/06/29 11:43:09;;;;;;;2.85;1.70;;;;;;;;;;4998174;28;20481;-85
2021/06/29 11:45:36;;;;;;;2.88;1.50;;;;;;;;;;4993469;28;21189;-86
2021/06/29 11:48:03;;;;;;;2.63;1.55;;;;;;;;;;4997373;28;20403;-86
2021/06/29 11:50:41;;;;;;;3.13;1.48;;;;;;;;;;4995673;28;20507;-86
2021/06/29 11:53:23;;;;;;;6.93;1.70;;;;;;;;;;4988004;28;20888;-86
2021/06/29 11:55:49;;;;;;;3.28;1.65;;;;;;;;;;4988451;28;20415;-85
2021/06/29 11:58:16;;;;;;;3.13;1.57;;;;;;;;;;4994939;28;20431;-86
2021/06/29 12:00:43;;;;;;;3.15;1.70;;;;;;;;;;4996797;28;20419;-86
2021/06/29 12:03:12;;;;;;;2.38;1.60;;;;;;;;;;4996442;28;20479;-86
2021/06/29 12:05:40;;;;;;;4.88;1.70;;;;;;;;;;4999760;28;20455;-85
2021/06/29 12:08:07;;;;;;;4.22;1.48;;;;;;;;;;5000118;28;20518;-86
2021/06/29 12:10:39;;;;;;;3.05;1.63;;;;;;;;;;4989240;28;20579;-86
2021/06/29 12:13:09;;;;;;;5.38;1.70;;;;;;;;;;4998323;28;20415;-86
2021/06/29 12:15:39;;;;;;;2.53;1.52;;;;;;;;;;4989969;28;20431;-86
2021/06/29 12:18:08;;;;;;;3.03;1.52;;;;;;;;;;4989977;28;20416;-86
2021/06/29 12:20:37;;;;;;;5.13;1.50;;;;;;;;;;4993410;28;20395;-86
2021/06/29 12:23:06;;;;;;;2.70;1.60;;;;;;;;;;4994434;28;20416;-86
2021/06/29 12:25:37;;;;;;;2.58;1.80;;;;;;;;;;4998869;28;20826;-86
2021/06/29 12:28:08;;;;;;;2.40;1.90;;;;;;;;;;4998921;28;20409;-85
2021/06/29 12:30:39;;;;;;;3.92;1.65;;;;;;;;;;5000133;28;20414;-86
2021/06/29 12:33:15;;;;;;;3.67;1.90;;;;;;;;;;4993719;28;20411;-86
2021/06/29 12:35:43;;;;;;;2.15;1.90;;;;;;;;;;5002632;28;20416;-86
2021/06/29 12:38:14;;;;;;;5.32;2.10;;;;;;;;;;5001636;28;20439;-86
2021/06/29 12:40:45;;;;;;;3.17;2.05;;;;;;;;;;4999133;28;20426;-85
2021/06/29 12:43:20;;;;;;;3.58;2.00;;;;;;;;;;4991470;28;20407;-86
2021/06/29 12:45:47;;;;;;;4.13;2.30;;;;;;;;;;5000227;28;20807;-86
2021/06/29 12:48:14;;;;;;;2.78;2.03;;;;;;;;;;5002987;28;20399;-85
2021/06/29 12:50:41;;;;;;;3.83;2.30;;;;;;;;;;5001935;28;20412;-85
2021/06/29 12:53:07;;;;;;;3.53;2.30;;;;;;;;;;4999635;28;20416;-86
2021/06/29 12:55:34;;;;;;;6.30;2.33;;;;;;;;;;4995189;28;20404;-86
2021/06/29 12:58:09;;;;;;;4.53;2.15;;;;;;;;;;5001255;28;20415;-86
2021/06/29 13:00:40;;;;;;;6.70;2.42;;;;;;;;;;4992653;28;20501;-86
2021/06/29 13:03:09;;;;;;;8.23;2.30;;;;;;;;;;4996372;28;20413;-86
2021/06/29 13:05:35;;;;;;;6.53;2.40;;;;;;;;;;4997415;28;20407;-86
2021/06/29 13:08:14;;;;;;;3.85;2.17;;;;;;;;;;4993203;28;20405;-86
2021/06/29 13:10:41;;;;;;;5.85;2.78;;;;;;;;;;4992795;28;20415;-86
2021/06/29 13:13:21;;;;;;;4.90;2.10;;;;;;;;;;4995027;28;20403;-86
2021/06/29 13:15:50;;;;;;;6.03;2.38;;;;;;;;;;4995386;28;20473;-86
2021/06/29 13:18:32;;;;;;;8.00;2.35;;;;;;;;;;4995859;28;20425;-85
2021/06/29 13:20:58;;;;;;;5.50;2.50;;;;;;;;;;4990459;28;20417;-86
2021/06/29 13:23:26;;;;;;;6.55;2.20;;;;;;;;;;4994836;28;20968;-86
2021/06/29 13:25:52;;;;;;;4.30;2.40;;;;;;;;;;4993419;28;20508;-85
2021/06/29 13:28:21;;;;;;;5.03;2.10;;;;;;;;;;4992435;28;20413;-86
2021/06/29 13:30:57;;;;;;;6.47;2.40;;;;;;;;;;4995171;28;20485;-86
2021/06/29 13:33:24;;;;;;;4.45;2.30;;;;;;;;;;4993242;28;20421;-86
2021/06/29 13:35:54;;;;;;;5.93;2.17;;;;;;;;;;4993335;28;20486;-86
2021/06/29 13:38:21;;;;;;;6.25;2.30;;;;;;;;;;4991979;28;20904;-86
2021/06/29 13:40:50;;;;;;;5.60;2.50;;;;;;;;;;4997558;28;20425;-85
2021/06/29 13:43:19;;;;;;;4.05;2.22;;;;;;;;;;5000084;28;20422;-86
2021/06/29 13:45:50;;;;;;;5.38;2.20;;;;;;;;;;4998798;28;20422;-86
2021/06/29 13:48:27;;;;;;;3.90;1.92;;;;;;;;;;4999916;28;20461;-86
2021/06/29 13:50:54;;;;;;;4.70;2.22;;;;;;;;;;4998016;28;20407;-86
2021/06/29 13:53:26;;;;;;;4.85;2.50;;;;;;;;;;4996213;28;20399;-86
2021/06/29 13:55:55;;;;;;;5.18;2.42;;;;;;;;;;4996708;28;20419;-86
2021/06/29 13:58:23;;;;;;;5.70;2.00;;;;;;;;;;4995557;28;20927;-86
2021/06/29 14:00:54;;;;;;;5.40;2.57;;;;;;;;;;4997950;28;20778;-86
2021/06/29 14:03:24;;;;;;;5.40;2.17;;;;;;;;;;4998726;28;20403;-86
2021/06/29 14:05:54;;;;;;;5.63;2.30;;;;;;;;;;4994041;28;20407;-86
2021/06/29 14:08:27;;;;;;;5.05;2.42;;;;;;;;;;4995344;28;20461;-86
2021/06/29 14:11:12;;;;;;;6.57;2.40;;;;;;;;;;4994814;28;20437;-86
2021/06/29 14:13:41;;;;;;;4.13;2.20;;;;;;;;;;4993110;28;20411;-86
2021/06/29 14:16:11;;;;;;;5.22;2.35;;;;;;;;;;4991813;28;20458;-86
2021/06/29 14:18:39;;;;;;;5.65;2.35;;;;;;;;;;4998492;28;20423;-86
2021/06/29 14:21:09;;;;;;;5.40;2.53;;;;;;;;;;4990899;28;20411;-86
2021/06/29 14:23:36;;;;;;;7.07;2.57;;;;;;;;;;4995297;28;21134;-86
2021/06/29 14:26:03;;;;;;;4.97;2.20;;;;;;;;;;4992319;28;21201;-86
2021/06/29 14:28:32;;;;;;;6.75;2.40;;;;;;;;;;4988505;28;20963;-86
2021/06/29 14:30:59;;;;;;;5.57;2.30;;;;;;;;;;4990722;28;20422;-86
2021/06/29 14:33:27;;;;;;;4.95;2.10;;;;;;;;;;4990947;28;20469;-86
2021/06/29 14:35:54;;;;;;;5.38;2.40;;;;;;;;;;4990076;28;20434;-86
2021/06/29 14:38:21;;;;;;;5.88;2.38;;;;;;;;;;4988191;28;20413;-86
2021/06/29 14:40:48;;;;;;;3.90;2.30;;;;;;;;;;4993014;28;20723;-86
2021/06/29 14:43:15;;;;;;;6.85;2.60;;;;;;;;;;4991175;28;20911;-86
2021/06/29 14:45:44;;;;;;;4.55;2.50;;;;;;;;;;4990736;28;20403;-86
2021/06/29 14:48:12;;;;;;;5.93;2.45;;;;;;;;;;4990473;28;20470;-85
2021/06/29 14:50:41;;;;;;;9.48;3.30;;;;;;;;;;4989345;28;21108;-86
2021/06/29 14:53:08;;;;;;;11.18;3.42;;;;;;;;;;4993096;28;21112;-86
2021/06/29 14:55:37;;;;;;;9.15;3.35;;;;;;;;;;4996341;28;20407;-87